sensor_id;sensor_type;location;lat;lon;timestamp;pressure;altitude;pressure_sealevel;temperature;humidity
6028;BME280;3042;43.194;27.646;2023-11-19T00:00:20;100565.00;;;6.94;100.00
6028;BME280;3042;43.194;27.646;2023-11-19T00:02:47;100722.31;;;7.66;100.00
6028;BME280;3042;43.194;27.646;2023-11-19T00:05:14;100738.41;;;7.78;100.00
6028;BME280;3042;43.194;27.646;2023-11-19T00:07:42;100743.91;;;7.85;100.00
6028;BME280;3042;43.194;27.646;2023-11-19T00:10:09;100753.69;;;7.75;100.00
6028;BME280;3042;43.194;27.646;2023-11-19T00:12:37;100757.03;;;7.74;100.00
6028;BME280;3042;43.194;27.646;2023-11-19T00:15:06;100681.75;;;7.46;100.00
6028;BME280;3042;43.194;27.646;2023-11-19T00:17:38;100773.66;;;7.96;100.00
6028;BME280;3042;43.194;27.646;2023-11-19T00:20:07;100787.38;;;7.80;100.00
6028;BME280;3042;43.194;27.646;2023-11-19T00:22:34;100595.81;;;6.94;100.00
6028;BME280;3042;43.194;27.646;2023-11-19T00:25:01;100798.72;;;7.83;100.00
6028;BME280;3042;43.194;27.646;2023-11-19T00:27:29;100781.88;;;8.05;100.00
6028;BME280;3042;43.194;27.646;2023-11-19T00:29:56;100747.63;;;7.90;100.00
6028;BME280;3042;43.194;27.646;2023-11-19T00:32:23;100800.41;;;8.14;100.00
6028;BME280;3042;43.194;27.646;2023-11-19T00:34:52;100823.81;;;8.19;100.00
6028;BME280;3042;43.194;27.646;2023-11-19T00:37:19;100807.75;;;7.92;100.00
6028;BME280;3042;43.194;27.646;2023-11-19T00:39:46;100819.53;;;8.03;100.00
6028;BME280;3042;43.194;27.646;2023-11-19T00:42:13;100828.84;;;8.01;100.00
6028;BME280;3042;43.194;27.646;2023-11-19T00:44:40;100776.97;;;7.47;100.00
6028;BME280;3042;43.194;27.646;2023-11-19T00:47:08;100847.56;;;7.83;100.00
6028;BME280;3042;43.194;27.646;2023-11-19T00:49:35;100836.84;;;7.76;100.00
6028;BME280;3042;43.194;27.646;2023-11-19T00:52:03;100760.38;;;7.27;100.00
6028;BME280;3042;43.194;27.646;2023-11-19T00:54:32;100855.81;;;7.93;100.00
6028;BME280;3042;43.194;27.646;2023-11-19T00:56:59;100847.31;;;7.94;100.00
6028;BME280;3042;43.194;27.646;2023-11-19T00:59:27;100866.97;;;8.08;100.00
6028;BME280;3042;43.194;27.646;2023-11-19T01:01:54;100865.56;;;7.83;100.00
6028;BME280;3042;43.194;27.646;2023-11-19T01:04:22;100876.56;;;7.96;100.00
6028;BME280;3042;43.194;27.646;2023-11-19T01:06:49;100867.88;;;8.09;100.00
6028;BME280;3042;43.194;27.646;2023-11-19T01:09:18;100887.53;;;8.23;100.00
6028;BME280;3042;43.194;27.646;2023-11-19T01:11:45;100810.19;;;8.05;100.00
6028;BME280;3042;43.194;27.646;2023-11-19T01:14:12;100829.75;;;7.72;100.00
6028;BME280;3042;43.194;27.646;2023-11-19T01:16:39;100772.69;;;7.48;100.00
6028;BME280;3042;43.194;27.646;2023-11-19T01:19:06;100830.13;;;7.78;100.00
6028;BME280;3042;43.194;27.646;2023-11-19T01:21:34;100894.72;;;8.14;100.00
6028;BME280;3042;43.194;27.646;2023-11-19T01:24:01;100892.94;;;8.28;100.00
6028;BME280;3042;43.194;27.646;2023-11-19T01:26:31;100906.56;;;7.80;100.00
6028;BME280;3042;43.194;27.646;2023-11-19T01:28:58;100895.22;;;7.92;100.00
6028;BME280;3042;43.194;27.646;2023-11-19T01:31:25;100905.50;;;7.92;100.00
6028;BME280;3042;43.194;27.646;2023-11-19T01:33:52;100911.88;;;7.54;100.00
6028;BME280;3042;43.194;27.646;2023-11-19T01:36:19;100937.16;;;7.76;100.00
6028;BME280;3042;43.194;27.646;2023-11-19T01:38:46;100922.88;;;7.66;100.00
6028;BME280;3042;43.194;27.646;2023-11-19T01:41:14;100926.59;;;7.71;100.00
6028;BME280;3042;43.194;27.646;2023-11-19T01:43:42;100912.97;;;7.87;100.00
6028;BME280;3042;43.194;27.646;2023-11-19T01:46:13;100920.22;;;7.65;100.00
6028;BME280;3042;43.194;27.646;2023-11-19T01:48:43;100912.38;;;7.63;100.00
6028;BME280;3042;43.194;27.646;2023-11-19T01:51:12;100916.69;;;7.77;100.00
6028;BME280;3042;43.194;27.646;2023-11-19T01:53:43;100925.63;;;7.84;100.00
6028;BME280;3042;43.194;27.646;2023-11-19T01:56:13;100923.06;;;7.69;100.00
6028;BME280;3042;43.194;27.646;2023-11-19T01:58:43;100884.38;;;7.53;100.00
6028;BME280;3042;43.194;27.646;2023-11-19T02:01:11;100654.19;;;5.96;100.00
6028;BME280;3042;43.194;27.646;2023-11-19T02:03:39;100934.31;;;7.56;100.00
6028;BME280;3042;43.194;27.646;2023-11-19T02:06:07;100935.97;;;7.56;100.00
6028;BME280;3042;43.194;27.646;2023-11-19T02:08:35;100943.28;;;7.35;100.00
6028;BME280;3042;43.194;27.646;2023-11-19T02:11:03;100950.66;;;7.44;100.00
6028;BME280;3042;43.194;27.646;2023-11-19T02:13:30;100937.19;;;7.33;100.00
6028;BME280;3042;43.194;27.646;2023-11-19T02:15:58;100969.47;;;7.43;100.00
6028;BME280;3042;43.194;27.646;2023-11-19T02:18:27;100939.78;;;7.48;100.00
6028;BME280;3042;43.194;27.646;2023-11-19T02:20:55;100823.22;;;6.89;100.00
6028;BME280;3042;43.194;27.646;2023-11-19T02:23:22;100932.72;;;7.30;100.00
6028;BME280;3042;43.194;27.646;2023-11-19T02:26:05;100982.03;;;7.38;100.00
6028;BME280;3042;43.194;27.646;2023-11-19T02:28:38;100970.91;;;7.24;100.00
6028;BME280;3042;43.194;27.646;2023-11-19T02:31:05;100965.66;;;7.51;100.00
6028;BME280;3042;43.194;27.646;2023-11-19T02:33:35;100978.31;;;7.33;100.00
6028;BME280;3042;43.194;27.646;2023-11-19T02:36:02;100988.38;;;7.30;100.00
6028;BME280;3042;43.194;27.646;2023-11-19T02:38:30;100979.22;;;7.20;100.00
6028;BME280;3042;43.194;27.646;2023-11-19T02:40:57;100920.16;;;7.07;100.00
6028;BME280;3042;43.194;27.646;2023-11-19T02:43:24;100971.22;;;7.44;100.00
6028;BME280;3042;43.194;27.646;2023-11-19T02:45:53;100982.75;;;7.35;100.00
6028;BME280;3042;43.194;27.646;2023-11-19T02:48:21;100961.13;;;7.47;100.00
6028;BME280;3042;43.194;27.646;2023-11-19T02:50:48;100979.13;;;7.47;100.00
6028;BME280;3042;43.194;27.646;2023-11-19T02:53:15;100936.25;;;7.17;100.00
6028;BME280;3042;43.194;27.646;2023-11-19T02:55:43;100948.63;;;7.10;100.00
6028;BME280;3042;43.194;27.646;2023-11-19T02:58:14;101013.19;;;7.29;100.00
6028;BME280;3042;43.194;27.646;2023-11-19T03:00:49;100980.94;;;7.34;100.00
6028;BME280;3042;43.194;27.646;2023-11-19T03:03:24;100969.38;;;7.13;100.00
6028;BME280;3042;43.194;27.646;2023-11-19T03:05:54;100997.59;;;7.26;100.00
6028;BME280;3042;43.194;27.646;2023-11-19T03:08:21;100996.03;;;7.28;100.00
6028;BME280;3042;43.194;27.646;2023-11-19T03:10:49;100869.91;;;6.69;100.00
6028;BME280;3042;43.194;27.646;2023-11-19T03:13:16;101020.06;;;7.44;100.00
6028;BME280;3042;43.194;27.646;2023-11-19T03:15:43;101016.44;;;7.40;100.00
6028;BME280;3042;43.194;27.646;2023-11-19T03:18:11;100993.03;;;7.35;100.00
6028;BME280;3042;43.194;27.646;2023-11-19T03:20:40;100863.47;;;6.34;100.00
6028;BME280;3042;43.194;27.646;2023-11-19T03:23:07;100992.19;;;7.08;100.00
6028;BME280;3042;43.194;27.646;2023-11-19T03:25:34;101036.09;;;7.39;100.00
6028;BME280;3042;43.194;27.646;2023-11-19T03:28:02;101002.31;;;7.33;100.00
6028;BME280;3042;43.194;27.646;2023-11-19T03:30:30;101004.69;;;7.30;100.00
6028;BME280;3042;43.194;27.646;2023-11-19T03:32:58;101031.59;;;7.22;100.00
6028;BME280;3042;43.194;27.646;2023-11-19T03:35:26;101054.38;;;7.44;100.00
6028;BME280;3042;43.194;27.646;2023-11-19T03:37:57;101006.72;;;7.08;100.00
6028;BME280;3042;43.194;27.646;2023-11-19T03:40:24;100922.28;;;6.86;100.00
6028;BME280;3042;43.194;27.646;2023-11-19T03:42:51;101066.31;;;7.57;100.00
6028;BME280;3042;43.194;27.646;2023-11-19T03:45:17;101024.69;;;7.21;100.00
6028;BME280;3042;43.194;27.646;2023-11-19T03:47:44;101049.19;;;7.29;100.00
6028;BME280;3042;43.194;27.646;2023-11-19T03:50:12;101068.72;;;7.40;100.00
6028;BME280;3042;43.194;27.646;2023-11-19T03:52:41;101069.19;;;7.48;100.00
6028;BME280;3042;43.194;27.646;2023-11-19T03:55:10;101062.00;;;7.43;100.00
6028;BME280;3042;43.194;27.646;2023-11-19T03:57:38;101058.03;;;7.48;100.00
6028;BME280;3042;43.194;27.646;2023-11-19T04:00:06;101051.63;;;7.41;100.00
6028;BME280;3042;43.194;27.646;2023-11-19T04:02:35;101077.03;;;7.36;100.00
6028;BME280;3042;43.194;27.646;2023-11-19T04:05:03;100906.84;;;6.58;100.00
6028;BME280;3042;43.194;27.646;2023-11-19T04:07:30;101091.06;;;7.42;100.00
6028;BME280;3042;43.194;27.646;2023-11-19T04:09:58;101074.50;;;7.65;100.00
6028;BME280;3042;43.194;27.646;2023-11-19T04:12:27;101086.97;;;7.58;100.00
6028;BME280;3042;43.194;27.646;2023-11-19T04:14:54;101055.94;;;7.42;100.00
6028;BME280;3042;43.194;27.646;2023-11-19T04:17:21;101090.50;;;7.74;100.00
6028;BME280;3042;43.194;27.646;2023-11-19T04:19:50;101043.59;;;7.50;100.00
6028;BME280;3042;43.194;27.646;2023-11-19T04:22:17;101096.16;;;7.68;100.00
6028;BME280;3042;43.194;27.646;2023-11-19T04:24:44;101055.34;;;7.46;100.00
6028;BME280;3042;43.194;27.646;2023-11-19T04:27:11;101115.31;;;7.73;100.00
6028;BME280;3042;43.194;27.646;2023-11-19T04:29:40;101100.06;;;7.76;100.00
6028;BME280;3042;43.194;27.646;2023-11-19T04:32:07;101097.28;;;7.87;100.00
6028;BME280;3042;43.194;27.646;2023-11-19T04:34:34;101090.09;;;7.96;100.00
6028;BME280;3042;43.194;27.646;2023-11-19T04:37:03;101102.72;;;8.06;100.00
6028;BME280;3042;43.194;27.646;2023-11-19T04:39:30;101125.22;;;7.67;100.00
6028;BME280;3042;43.194;27.646;2023-11-19T04:41:57;101122.59;;;7.52;100.00
6028;BME280;3042;43.194;27.646;2023-11-19T04:44:25;101112.50;;;7.83;100.00
6028;BME280;3042;43.194;27.646;2023-11-19T04:46:53;101125.97;;;7.79;100.00
6028;BME280;3042;43.194;27.646;2023-11-19T04:49:20;101121.59;;;7.92;100.00
6028;BME280;3042;43.194;27.646;2023-11-19T04:51:47;100955.03;;;6.75;100.00
6028;BME280;3042;43.194;27.646;2023-11-19T04:54:15;101166.63;;;7.85;100.00
6028;BME280;3042;43.194;27.646;2023-11-19T04:56:45;101076.91;;;7.48;100.00
6028;BME280;3042;43.194;27.646;2023-11-19T04:59:13;101127.47;;;8.04;100.00
6028;BME280;3042;43.194;27.646;2023-11-19T05:01:40;101151.19;;;7.85;100.00
6028;BME280;3042;43.194;27.646;2023-11-19T05:04:08;101116.78;;;7.83;100.00
6028;BME280;3042;43.194;27.646;2023-11-19T05:06:36;101113.75;;;7.75;100.00
6028;BME280;3042;43.194;27.646;2023-11-19T05:09:03;101098.63;;;7.67;100.00
6028;BME280;3042;43.194;27.646;2023-11-19T05:11:33;101119.81;;;7.91;100.00
6028;BME280;3042;43.194;27.646;2023-11-19T05:14:02;101110.19;;;7.73;100.00
6028;BME280;3042;43.194;27.646;2023-11-19T05:16:29;101051.59;;;7.54;100.00
6028;BME280;3042;43.194;27.646;2023-11-19T05:18:56;101093.50;;;7.81;100.00
6028;BME280;3042;43.194;27.646;2023-11-19T05:21:25;101084.28;;;7.70;100.00
6028;BME280;3042;43.194;27.646;2023-11-19T05:23:52;101059.75;;;7.34;100.00
6028;BME280;3042;43.194;27.646;2023-11-19T05:26:24;101117.09;;;7.74;100.00
6028;BME280;3042;43.194;27.646;2023-11-19T05:28:57;101118.09;;;7.63;100.00
6028;BME280;3042;43.194;27.646;2023-11-19T05:31:24;101124.06;;;7.62;100.00
6028;BME280;3042;43.194;27.646;2023-11-19T05:33:52;101038.50;;;7.23;100.00
6028;BME280;3042;43.194;27.646;2023-11-19T05:36:20;101113.19;;;7.53;100.00
6028;BME280;3042;43.194;27.646;2023-11-19T05:38:48;101136.34;;;7.39;100.00
6028;BME280;3042;43.194;27.646;2023-11-19T05:41:15;101143.47;;;7.44;100.00
6028;BME280;3042;43.194;27.646;2023-11-19T05:43:42;101138.50;;;7.60;100.00
6028;BME280;3042;43.194;27.646;2023-11-19T05:46:09;101137.94;;;7.24;100.00
6028;BME280;3042;43.194;27.646;2023-11-19T05:48:38;101142.41;;;7.40;100.00
6028;BME280;3042;43.194;27.646;2023-11-19T05:51:06;101145.56;;;7.49;100.00
6028;BME280;3042;43.194;27.646;2023-11-19T05:53:33;101156.78;;;7.65;100.00
6028;BME280;3042;43.194;27.646;2023-11-19T05:56:01;101024.44;;;6.76;100.00
6028;BME280;3042;43.194;27.646;2023-11-19T05:58:29;100976.94;;;6.17;100.00
6028;BME280;3042;43.194;27.646;2023-11-19T06:00:58;101168.59;;;7.48;100.00
6028;BME280;3042;43.194;27.646;2023-11-19T06:03:26;100995.50;;;6.52;100.00
6028;BME280;3042;43.194;27.646;2023-11-19T06:05:55;101182.81;;;7.29;100.00
6028;BME280;3042;43.194;27.646;2023-11-19T06:08:22;101196.56;;;7.16;100.00
6028;BME280;3042;43.194;27.646;2023-11-19T06:10:49;101080.44;;;6.55;100.00
6028;BME280;3042;43.194;27.646;2023-11-19T06:13:18;101201.63;;;7.28;100.00
6028;BME280;3042;43.194;27.646;2023-11-19T06:15:45;101193.78;;;7.27;100.00
6028;BME280;3042;43.194;27.646;2023-11-19T06:18:13;101068.19;;;6.65;100.00
6028;BME280;3042;43.194;27.646;2023-11-19T06:20:40;101209.91;;;7.24;100.00
6028;BME280;3042;43.194;27.646;2023-11-19T06:23:08;100909.34;;;5.51;100.00
6028;BME280;3042;43.194;27.646;2023-11-19T06:25:35;101206.81;;;7.03;100.00
6028;BME280;3042;43.194;27.646;2023-11-19T06:28:02;101213.47;;;7.26;100.00
6028;BME280;3042;43.194;27.646;2023-11-19T06:30:31;101085.97;;;6.62;100.00
6028;BME280;3042;43.194;27.646;2023-11-19T06:32:58;101148.03;;;7.08;100.00
6028;BME280;3042;43.194;27.646;2023-11-19T06:35:25;101189.34;;;7.24;100.00
6028;BME280;3042;43.194;27.646;2023-11-19T06:37:54;101197.34;;;7.29;100.00
6028;BME280;3042;43.194;27.646;2023-11-19T06:40:21;101188.16;;;7.32;100.00
6028;BME280;3042;43.194;27.646;2023-11-19T06:42:54;101179.44;;;7.57;100.00
6028;BME280;3042;43.194;27.646;2023-11-19T06:45:26;101167.00;;;7.23;100.00
6028;BME280;3042;43.194;27.646;2023-11-19T06:47:55;101165.00;;;7.59;100.00
6028;BME280;3042;43.194;27.646;2023-11-19T06:50:22;101147.84;;;7.45;100.00
6028;BME280;3042;43.194;27.646;2023-11-19T06:52:49;101193.50;;;7.35;100.00
6028;BME280;3042;43.194;27.646;2023-11-19T06:55:27;101185.47;;;7.57;100.00
6028;BME280;3042;43.194;27.646;2023-11-19T06:58:05;101178.28;;;7.52;100.00
6028;BME280;3042;43.194;27.646;2023-11-19T07:00:37;101194.47;;;7.77;100.00
6028;BME280;3042;43.194;27.646;2023-11-19T07:03:06;101213.41;;;7.79;100.00
6028;BME280;3042;43.194;27.646;2023-11-19T07:05:36;101202.34;;;7.80;100.00
6028;BME280;3042;43.194;27.646;2023-11-19T07:08:06;101229.25;;;7.72;100.00
6028;BME280;3042;43.194;27.646;2023-11-19T07:10:33;101243.72;;;7.70;100.00
6028;BME280;3042;43.194;27.646;2023-11-19T07:13:01;101206.34;;;7.75;100.00
6028;BME280;3042;43.194;27.646;2023-11-19T07:15:31;101230.66;;;7.80;100.00
6028;BME280;3042;43.194;27.646;2023-11-19T07:17:59;101226.88;;;7.89;100.00
6028;BME280;3042;43.194;27.646;2023-11-19T07:20:27;101237.31;;;8.05;100.00
6028;BME280;3042;43.194;27.646;2023-11-19T07:22:55;101250.19;;;8.05;100.00
6028;BME280;3042;43.194;27.646;2023-11-19T07:25:22;101240.34;;;7.85;100.00
6028;BME280;3042;43.194;27.646;2023-11-19T07:27:51;101095.25;;;7.00;100.00
6028;BME280;3042;43.194;27.646;2023-11-19T07:30:18;101256.25;;;7.92;100.00
6028;BME280;3042;43.194;27.646;2023-11-19T07:32:45;101254.03;;;7.70;100.00
6028;BME280;3042;43.194;27.646;2023-11-19T07:35:12;101251.94;;;7.78;100.00
6028;BME280;3042;43.194;27.646;2023-11-19T07:37:42;101248.06;;;7.85;100.00
6028;BME280;3042;43.194;27.646;2023-11-19T07:40:28;101258.34;;;7.85;100.00
6028;BME280;3042;43.194;27.646;2023-11-19T07:42:55;101252.41;;;7.99;100.00
6028;BME280;3042;43.194;27.646;2023-11-19T07:45:22;101268.03;;;8.02;100.00
6028;BME280;3042;43.194;27.646;2023-11-19T07:47:49;101224.28;;;7.89;100.00
6028;BME280;3042;43.194;27.646;2023-11-19T07:50:17;101149.41;;;7.43;100.00
6028;BME280;3042;43.194;27.646;2023-11-19T07:52:47;101244.56;;;8.11;100.00
6028;BME280;3042;43.194;27.646;2023-11-19T07:55:14;101142.06;;;7.49;100.00
6028;BME280;3042;43.194;27.646;2023-11-19T07:57:43;101211.97;;;7.70;100.00
6028;BME280;3042;43.194;27.646;2023-11-19T08:00:11;101249.16;;;8.30;100.00
6028;BME280;3042;43.194;27.646;2023-11-19T08:02:39;101189.81;;;7.72;100.00
6028;BME280;3042;43.194;27.646;2023-11-19T08:05:10;101255.97;;;7.88;100.00
6028;BME280;3042;43.194;27.646;2023-11-19T08:07:37;101212.81;;;7.97;100.00
6028;BME280;3042;43.194;27.646;2023-11-19T08:10:06;101231.81;;;7.99;100.00
6028;BME280;3042;43.194;27.646;2023-11-19T08:12:35;101151.50;;;7.76;100.00
6028;BME280;3042;43.194;27.646;2023-11-19T08:15:03;101118.34;;;7.39;100.00
6028;BME280;3042;43.194;27.646;2023-11-19T08:17:30;101160.22;;;7.78;100.00
6028;BME280;3042;43.194;27.646;2023-11-19T08:19:58;101155.66;;;7.74;100.00
6028;BME280;3042;43.194;27.646;2023-11-19T08:22:26;101226.69;;;7.86;100.00
6028;BME280;3042;43.194;27.646;2023-11-19T08:24:53;101197.31;;;7.82;100.00
6028;BME280;3042;43.194;27.646;2023-11-19T08:27:21;100953.06;;;6.58;100.00
6028;BME280;3042;43.194;27.646;2023-11-19T08:29:53;101221.69;;;8.02;100.00
6028;BME280;3042;43.194;27.646;2023-11-19T08:32:21;101209.06;;;7.92;100.00
6028;BME280;3042;43.194;27.646;2023-11-19T08:34:48;101223.34;;;7.87;100.00
6028;BME280;3042;43.194;27.646;2023-11-19T08:37:15;101241.09;;;8.10;100.00
6028;BME280;3042;43.194;27.646;2023-11-19T08:39:43;101226.41;;;8.22;100.00
6028;BME280;3042;43.194;27.646;2023-11-19T08:42:12;101050.00;;;7.15;100.00
6028;BME280;3042;43.194;27.646;2023-11-19T08:44:40;101027.69;;;7.01;100.00
6028;BME280;3042;43.194;27.646;2023-11-19T08:47:09;101207.97;;;8.30;100.00
6028;BME280;3042;43.194;27.646;2023-11-19T08:49:36;101165.84;;;8.14;100.00
6028;BME280;3042;43.194;27.646;2023-11-19T08:52:05;101199.78;;;8.22;100.00
6028;BME280;3042;43.194;27.646;2023-11-19T08:54:32;101210.44;;;8.56;100.00
6028;BME280;3042;43.194;27.646;2023-11-19T08:57:00;101190.47;;;8.52;100.00
6028;BME280;3042;43.194;27.646;2023-11-19T08:59:28;101186.13;;;8.51;100.00
6028;BME280;3042;43.194;27.646;2023-11-19T09:01:57;101209.28;;;8.51;100.00
6028;BME280;3042;43.194;27.646;2023-11-19T09:04:24;101193.47;;;8.45;100.00
6028;BME280;3042;43.194;27.646;2023-11-19T09:06:51;101212.84;;;8.53;100.00
6028;BME280;3042;43.194;27.646;2023-11-19T09:09:18;101168.13;;;8.10;100.00
6028;BME280;3042;43.194;27.646;2023-11-19T09:11:45;101197.25;;;8.65;100.00
6028;BME280;3042;43.194;27.646;2023-11-19T09:14:12;101065.72;;;8.04;100.00
6028;BME280;3042;43.194;27.646;2023-11-19T09:16:40;101189.78;;;8.70;100.00
6028;BME280;3042;43.194;27.646;2023-11-19T09:19:08;101217.84;;;8.80;100.00
6028;BME280;3042;43.194;27.646;2023-11-19T09:21:35;101130.75;;;8.30;100.00
6028;BME280;3042;43.194;27.646;2023-11-19T09:24:04;101223.38;;;8.71;100.00
6028;BME280;3042;43.194;27.646;2023-11-19T09:26:33;101224.44;;;8.75;100.00
6028;BME280;3042;43.194;27.646;2023-11-19T09:29:01;101093.31;;;7.64;100.00
6028;BME280;3042;43.194;27.646;2023-11-19T09:31:28;101147.22;;;8.18;100.00
6028;BME280;3042;43.194;27.646;2023-11-19T09:33:56;101210.25;;;8.25;100.00
6028;BME280;3042;43.194;27.646;2023-11-19T09:36:27;101203.47;;;8.69;100.00
6028;BME280;3042;43.194;27.646;2023-11-19T09:38:54;100981.47;;;7.01;100.00
6028;BME280;3042;43.194;27.646;2023-11-19T09:41:21;101158.66;;;8.09;100.00
6028;BME280;3042;43.194;27.646;2023-11-19T09:43:48;101097.16;;;7.57;100.00
6028;BME280;3042;43.194;27.646;2023-11-19T09:46:16;101168.78;;;8.20;100.00
6028;BME280;3042;43.194;27.646;2023-11-19T09:48:44;101234.72;;;8.75;100.00
6028;BME280;3042;43.194;27.646;2023-11-19T09:51:13;101028.38;;;7.39;100.00
6028;BME280;3042;43.194;27.646;2023-11-19T09:53:42;101150.25;;;7.98;100.00
6028;BME280;3042;43.194;27.646;2023-11-19T09:56:09;101175.81;;;7.95;100.00
6028;BME280;3042;43.194;27.646;2023-11-19T09:58:38;101173.81;;;8.04;100.00
6028;BME280;3042;43.194;27.646;2023-11-19T10:01:05;101237.63;;;8.38;100.00
6028;BME280;3042;43.194;27.646;2023-11-19T10:03:35;101239.41;;;8.39;100.00
6028;BME280;3042;43.194;27.646;2023-11-19T10:06:06;101234.88;;;8.35;100.00
6028;BME280;3042;43.194;27.646;2023-11-19T10:08:34;101249.47;;;8.62;100.00
6028;BME280;3042;43.194;27.646;2023-11-19T10:11:06;101123.00;;;8.15;100.00
6028;BME280;3042;43.194;27.646;2023-11-19T10:13:35;101228.69;;;8.89;100.00
6028;BME280;3042;43.194;27.646;2023-11-19T10:16:06;101167.72;;;8.45;100.00
6028;BME280;3042;43.194;27.646;2023-11-19T10:18:37;101250.00;;;8.72;100.00
6028;BME280;3042;43.194;27.646;2023-11-19T10:21:05;101252.44;;;8.98;100.00
6028;BME280;3042;43.194;27.646;2023-11-19T10:23:48;101248.91;;;8.53;100.00
6028;BME280;3042;43.194;27.646;2023-11-19T10:26:18;101278.16;;;9.12;100.00
6028;BME280;3042;43.194;27.646;2023-11-19T10:28:46;101294.06;;;9.04;100.00
6028;BME280;3042;43.194;27.646;2023-11-19T10:31:16;101311.75;;;9.13;100.00
6028;BME280;3042;43.194;27.646;2023-11-19T10:33:43;101335.41;;;9.21;100.00
6028;BME280;3042;43.194;27.646;2023-11-19T10:36:11;101365.38;;;9.19;100.00
6028;BME280;3042;43.194;27.646;2023-11-19T10:38:39;101290.63;;;8.76;100.00
6028;BME280;3042;43.194;27.646;2023-11-19T10:41:07;101386.59;;;9.15;100.00
6028;BME280;3042;43.194;27.646;2023-11-19T10:43:44;101141.22;;;7.76;100.00
6028;BME280;3042;43.194;27.646;2023-11-19T10:46:13;101404.31;;;9.23;100.00
6028;BME280;3042;43.194;27.646;2023-11-19T10:48:44;101409.06;;;9.45;100.00
6028;BME280;3042;43.194;27.646;2023-11-19T10:51:13;101420.44;;;9.34;100.00
6028;BME280;3042;43.194;27.646;2023-11-19T10:53:48;101397.44;;;9.67;100.00
6028;BME280;3042;43.194;27.646;2023-11-19T10:56:17;101286.44;;;8.78;100.00
6028;BME280;3042;43.194;27.646;2023-11-19T10:58:49;101427.59;;;9.68;100.00
6028;BME280;3042;43.194;27.646;2023-11-19T11:01:20;101432.78;;;9.98;100.00
6028;BME280;3042;43.194;27.646;2023-11-19T11:03:47;101435.53;;;9.86;100.00
6028;BME280;3042;43.194;27.646;2023-11-19T11:06:17;101435.63;;;10.02;100.00
6028;BME280;3042;43.194;27.646;2023-11-19T11:08:46;101337.91;;;9.34;100.00
6028;BME280;3042;43.194;27.646;2023-11-19T11:11:15;101354.28;;;9.79;100.00
6028;BME280;3042;43.194;27.646;2023-11-19T11:13:43;101430.75;;;10.53;100.00
6028;BME280;3042;43.194;27.646;2023-11-19T11:16:12;101429.56;;;10.94;100.00
6028;BME280;3042;43.194;27.646;2023-11-19T11:18:40;101417.44;;;11.26;100.00
6028;BME280;3042;43.194;27.646;2023-11-19T11:21:10;101330.47;;;10.46;100.00
6028;BME280;3042;43.194;27.646;2023-11-19T11:26:41;101417.03;;;10.54;100.00
6028;BME280;3042;43.194;27.646;2023-11-19T11:29:19;101344.97;;;10.44;100.00
6028;BME280;3042;43.194;27.646;2023-11-19T11:31:59;101411.13;;;11.04;100.00
6028;BME280;3042;43.194;27.646;2023-11-19T11:34:46;101409.06;;;10.66;100.00
6028;BME280;3042;43.194;27.646;2023-11-19T11:37:18;101414.66;;;10.73;100.00
6028;BME280;3042;43.194;27.646;2023-11-19T11:39:46;101414.44;;;10.85;100.00
6028;BME280;3042;43.194;27.646;2023-11-19T11:42:35;101410.22;;;10.71;100.00
6028;BME280;3042;43.194;27.646;2023-11-19T11:45:04;101363.28;;;10.63;100.00
6028;BME280;3042;43.194;27.646;2023-11-19T11:48:15;101419.38;;;10.97;100.00
6028;BME280;3042;43.194;27.646;2023-11-19T11:50:50;101422.53;;;10.91;100.00
6028;BME280;3042;43.194;27.646;2023-11-19T11:53:18;101382.78;;;10.58;100.00
6028;BME280;3042;43.194;27.646;2023-11-19T11:55:56;101369.59;;;10.68;100.00
6028;BME280;3042;43.194;27.646;2023-11-19T11:58:34;101411.38;;;10.92;100.00
6028;BME280;3042;43.194;27.646;2023-11-19T12:01:03;101323.66;;;10.31;100.00
6028;BME280;3042;43.194;27.646;2023-11-19T12:03:37;101308.59;;;10.24;100.00
6028;BME280;3042;43.194;27.646;2023-11-19T12:06:05;101260.88;;;10.32;100.00
6028;BME280;3042;43.194;27.646;2023-11-19T12:08:34;101456.16;;;11.24;100.00
6028;BME280;3042;43.194;27.646;2023-11-19T12:11:02;101317.56;;;10.62;100.00
6028;BME280;3042;43.194;27.646;2023-11-19T12:13:46;101436.50;;;11.28;100.00
6028;BME280;3042;43.194;27.646;2023-11-19T12:16:14;101433.97;;;10.80;100.00
6028;BME280;3042;43.194;27.646;2023-11-19T12:18:43;101445.16;;;11.12;100.00
6028;BME280;3042;43.194;27.646;2023-11-19T12:21:27;101403.00;;;10.49;100.00
6028;BME280;3042;43.194;27.646;2023-11-19T12:23:55;101337.00;;;9.78;100.00
6028;BME280;3042;43.194;27.646;2023-11-19T12:26:33;101384.66;;;10.29;100.00
6028;BME280;3042;43.194;27.646;2023-11-19T12:29:01;101442.91;;;10.39;100.00
6028;BME280;3042;43.194;27.646;2023-11-19T12:31:32;100917.84;;;7.25;100.00
6028;BME280;3042;43.194;27.646;2023-11-19T12:34:09;101445.28;;;10.51;100.00
6028;BME280;3042;43.194;27.646;2023-11-19T12:36:40;101441.03;;;10.99;100.00
6028;BME280;3042;43.194;27.646;2023-11-19T12:39:08;101441.19;;;11.18;100.00
6028;BME280;3042;43.194;27.646;2023-11-19T12:41:52;101346.47;;;10.88;100.00
6028;BME280;3042;43.194;27.646;2023-11-19T12:44:20;101306.44;;;10.80;100.00
6028;BME280;3042;43.194;27.646;2023-11-19T12:46:59;101427.00;;;11.61;100.00
6028;BME280;3042;43.194;27.646;2023-11-19T12:49:28;101400.41;;;11.64;100.00
6028;BME280;3042;43.194;27.646;2023-11-19T12:51:55;101467.66;;;12.13;100.00
6028;BME280;3042;43.194;27.646;2023-11-19T12:54:32;101348.16;;;11.36;100.00
6028;BME280;3042;43.194;27.646;2023-11-19T12:56:59;101468.53;;;12.31;100.00
6028;BME280;3042;43.194;27.646;2023-11-19T12:59:26;101431.00;;;12.23;100.00
6028;BME280;3042;43.194;27.646;2023-11-19T13:01:54;101469.06;;;12.60;100.00
6028;BME280;3042;43.194;27.646;2023-11-19T13:04:27;101294.50;;;11.68;100.00
6028;BME280;3042;43.194;27.646;2023-11-19T13:07:00;101449.78;;;12.55;100.00
6028;BME280;3042;43.194;27.646;2023-11-19T13:09:29;101348.63;;;12.16;100.00